Time,TemperatureF,DewpointF,PressureIn,WindDirection,WindDirectionDegrees,WindSpeedMPH,WindSpeedGustMPH,Humidity,HourlyPrecipIn,Conditions,Clouds,dailyrainin,SoftwareType,DateUTC
2013-02-28 00:01:00,30.1,29.1,29.83,NE,51,5.4,8.1,96,0.00,RA,,0.00,WeatherDisplay:10.37,2013-02-28 06:01:00,
2013-02-28 00:06:00,29.9,28.9,29.83,NNW,329,4.8,6.9,96,0.00,RA,,0.00,WeatherDisplay:10.37,2013-02-28 06:06:00,
2013-02-28 00:11:00,29.8,28.8,29.83,NW,325,4.4,6.9,96,0.00,,,0.00,WeatherDisplay:10.37,2013-02-28 06:11:00,
2013-02-28 00:16:00,29.6,28.6,29.83,NNW,341,4.2,5.8,96,0.00,,,0.00,WeatherDisplay:10.37,2013-02-28 06:16:00,
2013-02-28 00:21:00,29.4,28.4,29.83,NNW,335,4.2,5.8,96,0.00,,,0.00,WeatherDisplay:10.37,2013-02-28 06:21:00,
2013-02-28 00:26:00,29.2,28.2,29.83,NE,37,5.3,5.8,96,0.00,,,0.00,WeatherDisplay:10.37,2013-02-28 06:26:00,
2013-02-28 00:31:00,28.9,27.9,29.83,NW,314,4.6,6.9,96,0.00,,,0.00,WeatherDisplay:10.37,2013-02-28 06:31:00,
2013-02-28 00:36:00,28.5,27.3,29.83,NNW,331,4.5,4.6,95,0.00,,,0.00,WeatherDisplay:10.37,2013-02-28 06:36:00,
2013-02-28 00:41:00,28.7,27.7,29.83,NNW,327,4.9,6.9,96,0.00,,,0.00,WeatherDisplay:10.37,2013-02-28 06:41:00,
2013-02-28 00:46:00,29.1,28.4,29.83,NW,320,4.3,5.8,97,0.00,,,0.00,WeatherDisplay:10.37,2013-02-28 06:46:00,
2013-02-28 00:51:00,29.3,28.6,29.83,NNW,339,4.0,5.8,97,0.00,,,0.00,WeatherDisplay:10.37,2013-02-28 06:51:00,
2013-02-28 00:56:00,29.6,28.9,29.84,NW,305,4.7,6.9,97,0.00,,,0.00,WeatherDisplay:10.37,2013-02-28 06:56:00,
2013-02-28 01:01:00,29.8,29.1,29.84,NW,305,4.5,6.9,97,0.00,,,0.00,WeatherDisplay:10.37,2013-02-28 07:01:00,
2013-02-28 01:06:00,29.9,29.2,29.84,NNW,343,4.3,8.1,97,0.00,,,0.00,WeatherDisplay:10.37,2013-02-28 07:06:00,
2013-02-28 01:11:00,29.9,29.2,29.84,NW,321,3.8,5.0,97,0.00,,,0.00,WeatherDisplay:10.37,2013-02-28 07:11:00,
2013-02-28 01:16:00,30.0,29.0,29.84,NNW,345,4.3,8.1,96,0.00,,,0.00,WeatherDisplay:10.37,2013-02-28 07:16:00,
2013-02-28 01:21:00,30.0,29.3,29.84,NNW,338,4.5,8.1,97,0.00,,,0.00,WeatherDisplay:10.37,2013-02-28 07:21:00,
2013-02-28 01:26:00,30.0,29.0,29.84,NW,321,3.7,5.8,96,0.00,,,0.00,WeatherDisplay:10.37,2013-02-28 07:26:00,
2013-02-28 01:31:00,29.8,28.8,29.84,NW,305,4.7,6.9,96,0.00,,,0.00,WeatherDisplay:10.37,2013-02-28 07:31:00,
2013-02-28 01:36:00,30.0,29.0,29.85,NNW,341,4.0,8.1,96,0.00,,,0.00,WeatherDisplay:10.37,2013-02-28 07:36:00,
2013-02-28 01:41:00,30.2,29.5,29.85,NNW,345,5.5,9.2,97,0.00,,,0.00,WeatherDisplay:10.37,2013-02-28 07:41:00,
2013-02-28 01:46:00,30.3,29.6,29.85,NW,312,3.7,5.8,97,0.00,,,0.00,WeatherDisplay:10.37,2013-02-28 07:46:00,
2013-02-28 01:51:00,30.4,29.4,29.85,NW,314,5.5,6.9,96,0.00,,,0.00,WeatherDisplay:10.37,2013-02-28 07:51:00,
2013-02-28 01:56:00,30.5,29.5,29.85,NNW,345,5.5,7.0,96,0.00,,,0.00,WeatherDisplay:10.37,2013-02-28 07:56:00,
2013-02-28 02:01:00,30.6,29.6,29.85,NW,314,4.9,6.9,96,0.00,,,0.00,WeatherDisplay:10.37,2013-02-28 08:01:00,
2013-02-28 02:06:00,30.6,29.6,29.85,NW,314,5.5,8.1,96,0.00,,,0.00,WeatherDisplay:10.37,2013-02-28 08:06:00,
2013-02-28 02:11:00,30.7,29.7,29.85,NW,307,4.6,8.1,96,0.00,,,0.00,WeatherDisplay:10.37,2013-02-28 08:11:00,
2013-02-28 02:16:00,30.8,29.8,29.85,NW,311,4.4,5.8,96,0.00,,,0.00,WeatherDisplay:10.37,2013-02-28 08:16:00,
2013-02-28 02:21:00,30.9,29.9,29.85,NW,319,5.1,8.1,96,0.00,,,0.00,WeatherDisplay:10.37,2013-02-28 08:21:00,
2013-02-28 02:27:00,31.0,30.0,29.85,NNW,329,6.5,9.2,96,0.00,,,0.00,WeatherDisplay:10.37,2013-02-28 08:27:00,
2013-02-28 02:32:00,31.1,30.1,29.85,NNW,335,5.8,8.1,96,0.00,,,0.00,WeatherDisplay:10.37,2013-02-28 08:32:00,
2013-02-28 02:37:00,31.1,30.1,29.85,NNW,333,6.5,8.1,96,0.00,,,0.00,WeatherDisplay:10.37,2013-02-28 08:37:00,
2013-02-28 02:42:00,31.2,30.2,29.86,NNW,329,5.1,10.4,96,0.00,,,0.00,WeatherDisplay:10.37,2013-02-28 08:42:00,
2013-02-28 02:47:00,31.2,30.2,29.85,NNE,16,6.0,8.0,96,0.00,,,0.00,WeatherDisplay:10.37,2013-02-28 08:47:00,
2013-02-28 02:52:00,31.2,30.2,29.85,NNW,332,5.0,9.2,96,0.00,,,0.00,WeatherDisplay:10.37,2013-02-28 08:52:00,
2013-02-28 02:57:00,31.3,30.3,29.86,North,4,5.3,9.2,96,0.00,,,0.00,WeatherDisplay:10.37,2013-02-28 08:57:00,
2013-02-28 03:02:00,31.3,30.3,29.85,West,266,6.5,10.4,96,0.00,,,0.00,WeatherDisplay:10.37,2013-02-28 09:02:00,
2013-02-28 03:07:00,31.3,30.3,29.86,NW,323,5.8,10.4,96,0.00,,,0.00,WeatherDisplay:10.37,2013-02-28 09:07:00,
2013-02-28 03:12:00,31.4,30.4,29.86,NW,316,4.8,8.1,96,0.00,,,0.00,WeatherDisplay:10.37,2013-02-28 09:12:00,
2013-02-28 03:17:00,31.4,30.6,29.86,NW,312,6.7,11.5,97,0.00,,,0.00,WeatherDisplay:10.37,2013-02-28 09:17:00,
2013-02-28 03:22:00,31.5,30.7,29.86,NW,320,6.8,11.5,97,0.00,,,0.00,WeatherDisplay:10.37,2013-02-28 09:22:00,
2013-02-28 03:27:00,31.5,30.7,29.86,NW,325,6.4,12.0,97,0.00,,,0.00,WeatherDisplay:10.37,2013-02-28 09:27:00,
2013-02-28 03:32:00,31.6,30.6,29.86,North,360,5.9,8.1,96,0.00,,,0.00,WeatherDisplay:10.37,2013-02-28 09:32:00,
2013-02-28 03:37:00,31.6,30.6,29.87,NNW,335,4.0,6.9,96,0.00,,,0.00,WeatherDisplay:10.37,2013-02-28 09:37:00,
2013-02-28 03:42:00,31.6,30.6,29.87,WNW,300,3.6,4.6,96,0.00,,,0.00,WeatherDisplay:10.37,2013-02-28 09:42:00,
2013-02-28 03:47:00,31.6,30.6,29.87,NNE,25,4.1,8.1,96,0.00,,,0.00,WeatherDisplay:10.37,2013-02-28 09:47:00,
2013-02-28 03:52:00,31.6,30.6,29.87,NNW,343,4.7,5.8,96,0.00,,,0.00,WeatherDisplay:10.37,2013-02-28 09:52:00,
2013-02-28 03:57:00,31.6,30.8,29.87,NW,315,3.9,6.9,97,0.00,,,0.00,WeatherDisplay:10.37,2013-02-28 09:57:00,
2013-02-28 04:02:00,31.7,30.9,29.88,NW,316,5.7,8.1,97,0.00,,,0.00,WeatherDisplay:10.37,2013-02-28 10:02:00,
2013-02-28 04:07:00,31.7,30.7,29.88,NE,35,6.9,9.2,96,0.00,,,0.00,WeatherDisplay:10.37,2013-02-28 10:07:00,
2013-02-28 04:13:00,31.7,30.7,29.88,NNE,22,5.2,10.0,96,0.00,,,0.00,WeatherDisplay:10.37,2013-02-28 10:13:00,
2013-02-28 04:18:00,31.7,30.7,29.88,NNW,333,4.3,6.9,96,0.00,,,0.00,WeatherDisplay:10.37,2013-02-28 10:18:00,
2013-02-28 04:23:00,31.7,30.7,29.88,NNW,341,5.1,9.2,96,0.00,,,0.00,WeatherDisplay:10.37,2013-02-28 10:23:00,
2013-02-28 04:28:00,31.7,30.7,29.88,NNE,33,5.1,6.9,96,0.00,,,0.00,WeatherDisplay:10.37,2013-02-28 10:28:00,
2013-02-28 04:33:00,31.6,30.6,29.88,NW,321,4.4,4.6,96,0.00,,,0.00,WeatherDisplay:10.37,2013-02-28 10:33:00,
2013-02-28 04:38:00,31.6,30.6,29.89,NW,314,4.6,6.9,96,0.00,,,0.00,WeatherDisplay:10.37,2013-02-28 10:38:00,
2013-02-28 04:43:00,31.6,30.6,29.89,East,86,3.8,5.0,96,0.00,,,0.00,WeatherDisplay:10.37,2013-02-28 10:43:00,
2013-02-28 04:48:00,31.6,30.6,29.90,NNW,333,4.9,8.1,96,0.00,,,0.00,WeatherDisplay:10.37,2013-02-28 10:48:00,
2013-02-28 04:53:00,31.7,30.7,29.90,NW,314,5.6,6.9,96,0.00,,,0.00,WeatherDisplay:10.37,2013-02-28 10:53:00,
2013-02-28 04:58:00,31.7,30.7,29.90,NE,35,3.4,5.8,96,0.00,,,0.00,WeatherDisplay:10.37,2013-02-28 10:58:00,
2013-02-28 05:03:00,31.6,30.6,29.90,NNW,328,5.1,8.1,96,0.00,,,0.00,WeatherDisplay:10.37,2013-02-28 11:03:00,
2013-02-28 05:08:00,31.6,30.6,29.91,NNW,328,4.1,5.8,96,0.00,,,0.00,WeatherDisplay:10.37,2013-02-28 11:08:00,
2013-02-28 05:13:00,31.6,30.6,29.91,NNE,33,3.8,5.8,96,0.00,,,0.00,WeatherDisplay:10.37,2013-02-28 11:13:00,
2013-02-28 05:18:00,31.6,30.6,29.91,NNE,30,5.6,7.0,96,0.00,,,0.00,WeatherDisplay:10.37,2013-02-28 11:18:00,
2013-02-28 05:23:00,31.6,30.6,29.91,NNW,333,4.5,8.1,96,0.00,,,0.00,WeatherDisplay:10.37,2013-02-28 11:23:00,
2013-02-28 05:28:00,31.6,30.6,29.91,NE,45,3.9,5.8,96,0.00,,,0.00,WeatherDisplay:10.37,2013-02-28 11:28:00,
2013-02-28 05:33:00,31.6,30.6,29.91,ENE,66,4.0,6.0,96,0.00,,,0.00,WeatherDisplay:10.37,2013-02-28 11:33:00,
2013-02-28 05:38:00,31.5,30.5,29.91,NE,53,4.8,6.9,96,0.00,,,0.00,WeatherDisplay:10.37,2013-02-28 11:38:00,
2013-02-28 05:43:00,31.5,30.5,29.91,NE,36,4.1,5.8,96,0.00,,,0.00,WeatherDisplay:10.37,2013-02-28 11:43:00,
2013-02-28 05:48:00,31.4,30.4,29.92,NE,40,4.9,6.9,96,0.00,,,0.00,WeatherDisplay:10.37,2013-02-28 11:48:00,
2013-02-28 05:53:00,31.4,30.4,29.92,North,6,4.8,5.8,96,0.00,,,0.00,WeatherDisplay:10.37,2013-02-28 11:53:00,
2013-02-28 05:58:00,31.4,30.4,29.92,NNE,33,5.3,9.2,96,0.00,,,0.00,WeatherDisplay:10.37,2013-02-28 11:58:00,
2013-02-28 06:03:00,31.4,30.4,29.92,NE,39,5.6,8.1,96,0.00,,,0.00,WeatherDisplay:10.37,2013-02-28 12:03:00,
2013-02-28 06:08:00,31.4,30.4,29.92,NNW,340,5.1,10.4,96,0.00,CLR,,0.00,WeatherDisplay:10.37,2013-02-28 12:08:00,
2013-02-28 06:13:00,31.4,30.1,29.92,NW,310,4.0,5.0,95,0.00,CLR,,0.00,WeatherDisplay:10.37,2013-02-28 12:13:00,
2013-02-28 06:18:00,31.4,30.1,29.92,North,4,6.0,9.2,95,0.00,CLR,,0.00,WeatherDisplay:10.37,2013-02-28 12:18:00,
2013-02-28 06:23:00,31.3,30.0,29.93,North,356,4.3,8.1,95,0.00,CLR,,0.00,WeatherDisplay:10.37,2013-02-28 12:23:00,
2013-02-28 06:28:00,31.2,29.9,29.93,North,356,3.7,6.9,95,0.00,CLR,,0.00,WeatherDisplay:10.37,2013-02-28 12:28:00,
2013-02-28 06:33:00,31.2,29.9,29.93,NE,47,4.8,8.1,95,0.00,CLR,,0.00,WeatherDisplay:10.37,2013-02-28 12:33:00,
2013-02-28 06:38:00,31.2,29.9,29.93,North,9,4.1,5.8,95,0.00,CLR,,0.00,WeatherDisplay:10.37,2013-02-28 12:38:00,
2013-02-28 06:43:00,31.2,29.9,29.93,NNW,343,3.6,5.8,95,0.00,CLR,,0.00,WeatherDisplay:10.37,2013-02-28 12:43:00,
2013-02-28 06:48:00,31.2,29.9,29.94,NNE,23,4.7,8.1,95,0.00,CLR,,0.00,WeatherDisplay:10.37,2013-02-28 12:48:00,
2013-02-28 06:53:00,31.3,30.0,29.94,NE,36,4.8,5.8,95,0.00,CLR,,0.00,WeatherDisplay:10.37,2013-02-28 12:53:00,
2013-02-28 06:58:00,31.3,30.0,29.94,NE,36,5.1,6.9,95,0.00,CLR,,0.00,WeatherDisplay:10.37,2013-02-28 12:58:00,
2013-02-28 07:03:00,31.3,30.0,29.94,WNW,299,4.1,5.8,95,0.00,CLR,,0.00,WeatherDisplay:10.37,2013-02-28 13:03:00,
2013-02-28 07:08:00,31.3,30.0,29.94,NNE,32,5.2,9.2,95,0.00,CLR,,0.00,WeatherDisplay:10.37,2013-02-28 13:08:00,
2013-02-28 07:13:00,31.3,30.0,29.94,NNW,339,4.8,7.0,95,0.00,CLR,,0.00,WeatherDisplay:10.37,2013-02-28 13:13:00,
2013-02-28 07:18:00,31.4,30.1,29.95,NE,43,5.4,8.1,95,0.00,CLR,,0.00,WeatherDisplay:10.37,2013-02-28 13:18:00,
2013-02-28 07:23:00,31.4,30.1,29.95,North,6,4.1,7.0,95,0.00,CLR,,0.00,WeatherDisplay:10.37,2013-02-28 13:23:00,
2013-02-28 07:29:00,31.4,30.1,29.95,NE,46,4.4,5.8,95,0.00,CLR,,0.00,WeatherDisplay:10.37,2013-02-28 13:29:00,
2013-02-28 07:34:00,31.4,30.1,29.95,NW,308,5.1,5.8,95,0.00,CLR,,0.00,WeatherDisplay:10.37,2013-02-28 13:34:00,
2013-02-28 07:39:00,31.5,30.2,29.96,NE,38,6.6,9.2,95,0.00,CLR,,0.00,WeatherDisplay:10.37,2013-02-28 13:39:00,
2013-02-28 07:44:00,31.6,30.3,29.96,NE,38,6.7,9.2,95,0.00,CLR,,0.00,WeatherDisplay:10.37,2013-02-28 13:44:00,
2013-02-28 07:49:00,31.5,30.2,29.96,NNE,22,4.7,7.0,95,0.00,CLR,,0.00,WeatherDisplay:10.37,2013-02-28 13:49:00,
2013-02-28 07:54:00,31.6,30.3,29.96,North,357,6.5,10.4,95,0.00,CLR,,0.00,WeatherDisplay:10.37,2013-02-28 13:54:00,
2013-02-28 07:59:00,31.6,30.3,29.97,NW,323,7.0,10.4,95,0.00,CLR,,0.00,WeatherDisplay:10.37,2013-02-28 13:59:00,
2013-02-28 08:04:00,32.0,30.7,29.97,NNE,33,8.0,10.4,95,0.00,CLR,,0.00,WeatherDisplay:10.37,2013-02-28 14:04:00,
2013-02-28 08:09:00,32.2,30.9,29.97,NE,36,7.4,11.5,95,0.00,CLR,,0.00,WeatherDisplay:10.37,2013-02-28 14:09:00,
2013-02-28 08:14:00,32.3,31.0,29.97,NE,35,9.8,11.5,95,0.00,CLR,,0.00,WeatherDisplay:10.37,2013-02-28 14:14:00,
2013-02-28 08:19:00,32.3,30.8,29.97,NE,47,10.2,12.0,94,0.00,CLR,,0.00,WeatherDisplay:10.37,2013-02-28 14:19:00,
2013-02-28 08:24:00,32.3,30.8,29.97,NNW,345,10.0,11.5,94,0.00,CLR,,0.00,WeatherDisplay:10.37,2013-02-28 14:24:00,
2013-02-28 08:29:00,32.4,30.9,29.97,North,3,7.6,10.4,94,0.00,CLR,,0.00,WeatherDisplay:10.37,2013-02-28 14:29:00,
2013-02-28 08:35:00,32.4,30.9,29.98,WNW,302,9.8,11.5,94,0.00,CLR,,0.00,WeatherDisplay:10.37,2013-02-28 14:35:00,
2013-02-28 08:40:00,32.4,30.9,29.98,NE,36,8.6,11.5,94,0.00,CLR,,0.00,WeatherDisplay:10.37,2013-02-28 14:40:00,
2013-02-28 08:45:00,32.5,31.0,29.98,North,6,10.8,13.8,94,0.00,CLR,,0.00,WeatherDisplay:10.37,2013-02-28 14:45:00,
2013-02-28 08:50:00,32.6,31.1,29.98,North,356,9.3,12.7,94,0.00,CLR,,0.00,WeatherDisplay:10.37,2013-02-28 14:50:00,
2013-02-28 08:55:00,32.6,31.1,29.98,NNE,26,7.8,12.7,94,0.00,CLR,,0.00,WeatherDisplay:10.37,2013-02-28 14:55:00,
2013-02-28 09:00:00,32.6,31.3,29.98,North,352,9.0,9.2,95,0.00,CLR,,0.00,WeatherDisplay:10.37,2013-02-28 15:00:00,
2013-02-28 09:05:00,32.7,31.4,29.99,NNE,12,8.0,8.1,95,0.00,CLR,,0.00,WeatherDisplay:10.37,2013-02-28 15:05:00,
2013-02-28 09:10:00,32.9,31.6,29.99,NW,325,5.5,9.2,95,0.00,CLR,,0.00,WeatherDisplay:10.37,2013-02-28 15:10:00,
2013-02-28 09:15:00,32.9,31.6,29.99,NW,314,6.6,8.1,95,0.00,CLR,,0.00,WeatherDisplay:10.37,2013-02-28 15:15:00,
2013-02-28 09:20:00,33.0,31.7,29.99,NNE,27,8.4,11.5,95,0.00,CLR,,0.00,WeatherDisplay:10.37,2013-02-28 15:20:00,
2013-02-28 09:25:00,33.1,31.8,29.99,NNE,18,8.0,12.0,95,0.00,CLR,,0.00,WeatherDisplay:10.37,2013-02-28 15:25:00,
2013-02-28 09:30:00,33.1,31.8,29.99,NNE,14,9.0,12.0,95,0.00,CLR,,0.00,WeatherDisplay:10.37,2013-02-28 15:30:00,
2013-02-28 09:35:00,33.2,31.9,30.00,NNE,25,7.0,13.0,95,0.00,CLR,,0.00,WeatherDisplay:10.37,2013-02-28 15:35:00,
2013-02-28 09:40:00,33.2,31.9,30.00,NNE,15,8.0,13.0,95,0.00,CLR,,0.00,WeatherDisplay:10.37,2013-02-28 15:40:00,
2013-02-28 09:45:00,33.2,31.9,30.00,North,9,7.3,10.0,95,0.00,CLR,,0.00,WeatherDisplay:10.37,2013-02-28 15:45:00,
2013-02-28 09:50:00,33.3,32.0,30.00,North,358,8.6,11.5,95,0.00,CLR,,0.00,WeatherDisplay:10.37,2013-02-28 15:50:00,
2013-02-28 09:55:00,33.3,32.0,30.00,North,354,9.4,11.5,95,0.00,CLR,,0.00,WeatherDisplay:10.37,2013-02-28 15:55:00,
2013-02-28 10:00:00,33.4,32.1,30.00,NNE,18,9.5,11.5,95,0.00,CLR,,0.00,WeatherDisplay:10.37,2013-02-28 16:00:00,
2013-02-28 10:05:00,33.5,32.2,30.00,NNE,29,10.2,15.0,95,0.00,CLR,,0.00,WeatherDisplay:10.37,2013-02-28 16:05:00,
2013-02-28 10:10:00,33.4,32.4,30.00,North,359,11.8,16.1,96,0.00,CLR,,0.00,WeatherDisplay:10.37,2013-02-28 16:10:00,
2013-02-28 10:15:00,33.4,32.1,30.00,NNE,33,10.0,12.7,95,0.00,CLR,,0.00,WeatherDisplay:10.37,2013-02-28 16:15:00,
2013-02-28 10:20:00,33.5,32.5,30.00,NNE,16,7.7,10.4,96,0.00,CLR,,0.00,WeatherDisplay:10.37,2013-02-28 16:20:00,
2013-02-28 10:25:00,33.5,32.2,30.00,NNW,328,8.7,11.5,95,0.00,CLR,,0.00,WeatherDisplay:10.37,2013-02-28 16:25:00,
2013-02-28 10:30:00,33.6,32.3,30.00,NNE,26,8.7,13.0,95,0.00,CLR,,0.00,WeatherDisplay:10.37,2013-02-28 16:30:00,
2013-02-28 10:35:00,33.6,32.3,30.00,NNW,340,10.0,12.7,95,0.00,CLR,,0.00,WeatherDisplay:10.37,2013-02-28 16:35:00,
2013-02-28 10:40:00,33.7,32.7,30.00,North,350,8.0,10.4,96,0.00,CLR,,0.00,WeatherDisplay:10.37,2013-02-28 16:40:00,
2013-02-28 10:45:00,33.8,32.5,30.00,NNE,20,8.9,12.7,95,0.00,CLR,,0.00,WeatherDisplay:10.37,2013-02-28 16:45:00,
2013-02-28 10:50:00,33.8,32.8,30.00,North,352,7.4,10.4,96,0.00,CLR,,0.00,WeatherDisplay:10.37,2013-02-28 16:50:00,
2013-02-28 10:56:00,33.7,32.4,30.01,NE,49,10.6,15.0,95,0.00,CLR,,0.00,WeatherDisplay:10.37,2013-02-28 16:56:00,
2013-02-28 11:01:00,33.7,32.4,30.01,NNE,25,9.5,12.7,95,0.00,CLR,,0.00,WeatherDisplay:10.37,2013-02-28 17:01:00,
2013-02-28 11:06:00,33.8,32.5,30.01,NNW,333,8.5,11.5,95,0.00,CLR,,0.00,WeatherDisplay:10.37,2013-02-28 17:06:00,
2013-02-28 11:11:00,33.9,32.6,30.01,North,11,8.6,10.4,95,0.00,CLR,,0.00,WeatherDisplay:10.37,2013-02-28 17:11:00,
2013-02-28 11:16:00,33.9,32.6,30.01,NNW,338,10.6,12.7,95,0.00,CLR,,0.00,WeatherDisplay:10.37,2013-02-28 17:16:00,
2013-02-28 11:21:00,33.9,32.6,30.01,NNE,25,8.4,11.5,95,0.00,CLR,,0.00,WeatherDisplay:10.37,2013-02-28 17:21:00,
2013-02-28 11:26:00,34.0,33.0,30.01,NNW,347,9.3,12.7,96,0.00,CLR,,0.00,WeatherDisplay:10.37,2013-02-28 17:26:00,
2013-02-28 11:31:00,34.0,32.7,30.01,North,6,6.8,11.5,95,0.00,CLR,,0.00,WeatherDisplay:10.37,2013-02-28 17:31:00,
2013-02-28 11:36:00,34.1,32.8,30.01,NNE,19,5.8,10.0,95,0.00,CLR,,0.00,WeatherDisplay:10.37,2013-02-28 17:36:00,
2013-02-28 11:41:00,34.1,32.8,30.01,NNE,16,5.2,6.9,95,0.00,CLR,,0.00,WeatherDisplay:10.37,2013-02-28 17:41:00,
2013-02-28 11:46:00,34.1,32.8,30.01,NNW,345,7.2,9.2,95,0.00,CLR,,0.00,WeatherDisplay:10.37,2013-02-28 17:46:00,
2013-02-28 11:51:00,34.1,32.8,30.01,NNW,328,5.8,8.1,95,0.00,CLR,,0.00,WeatherDisplay:10.37,2013-02-28 17:51:00,
2013-02-28 11:56:00,34.1,32.8,30.02,NNE,20,5.8,8.1,95,0.00,CLR,,0.00,WeatherDisplay:10.37,2013-02-28 17:56:00,
2013-02-28 12:01:00,34.0,32.7,30.02,NNE,23,5.8,9.2,95,0.00,CLR,,0.00,WeatherDisplay:10.37,2013-02-28 18:01:00,
2013-02-28 12:06:00,34.0,32.7,30.01,NNE,22,6.0,9.2,95,0.00,CLR,,0.00,WeatherDisplay:10.37,2013-02-28 18:06:00,
2013-02-28 12:11:00,34.0,33.0,30.01,NNE,18,5.5,9.2,96,0.00,CLR,,0.00,WeatherDisplay:10.37,2013-02-28 18:11:00,
2013-02-28 12:16:00,34.1,33.1,30.01,ENE,60,7.5,10.4,96,0.00,CLR,,0.00,WeatherDisplay:10.37,2013-02-28 18:16:00,
2013-02-28 12:21:00,34.0,32.7,30.01,North,6,7.9,11.5,95,0.00,CLR,,0.00,WeatherDisplay:10.37,2013-02-28 18:21:00,
2013-02-28 12:26:00,34.1,33.1,30.01,NNE,15,6.3,9.0,96,0.00,CLR,,0.00,WeatherDisplay:10.37,2013-02-28 18:26:00,
2013-02-28 12:31:00,34.1,32.8,30.01,NNE,22,9.4,11.5,95,0.00,CLR,,0.00,WeatherDisplay:10.37,2013-02-28 18:31:00,
2013-02-28 12:36:00,34.1,33.1,30.02,NNE,19,5.9,8.1,96,0.00,CLR,,0.00,WeatherDisplay:10.37,2013-02-28 18:36:00,
2013-02-28 12:41:00,34.1,32.8,30.01,North,11,9.1,11.5,95,0.00,CLR,,0.00,WeatherDisplay:10.37,2013-02-28 18:41:00,
2013-02-28 12:47:00,34.0,32.7,30.02,WNW,302,7.7,9.2,95,0.00,CLR,,0.00,WeatherDisplay:10.37,2013-02-28 18:47:00,
2013-02-28 12:52:00,34.0,33.0,30.02,NNE,33,6.1,8.0,96,0.00,CLR,,0.00,WeatherDisplay:10.37,2013-02-28 18:52:00,
2013-02-28 12:57:00,34.0,33.0,30.02,NE,36,5.6,8.1,96,0.00,CLR,,0.00,WeatherDisplay:10.37,2013-02-28 18:57:00,
2013-02-28 13:02:00,33.9,32.9,30.02,NE,40,7.4,7.4,96,0.00,CLR,,0.00,WeatherDisplay:10.37,2013-02-28 19:02:00,
2013-02-28 13:07:00,33.8,32.8,30.02,NNE,33,6.7,10.4,96,0.00,CLR,,0.00,WeatherDisplay:10.37,2013-02-28 19:07:00,
2013-02-28 13:12:00,33.7,32.7,30.02,NNE,33,8.6,11.5,96,0.00,CLR,,0.00,WeatherDisplay:10.37,2013-02-28 19:12:00,
2013-02-28 13:17:00,33.8,32.8,30.02,North,349,5.6,9.0,96,0.00,CLR,,0.00,WeatherDisplay:10.37,2013-02-28 19:17:00,
2013-02-28 13:22:00,33.7,32.7,30.02,North,5,6.8,10.4,96,0.00,CLR,,0.00,WeatherDisplay:10.37,2013-02-28 19:22:00,
2013-02-28 13:27:00,33.7,32.7,30.02,North,349,6.9,9.2,96,0.00,CLR,,0.00,WeatherDisplay:10.37,2013-02-28 19:27:00,
2013-02-28 13:32:00,33.7,32.7,30.02,North,359,7.1,9.2,96,0.00,CLR,,0.00,WeatherDisplay:10.37,2013-02-28 19:32:00,
2013-02-28 13:37:00,33.8,32.8,30.02,NNW,339,6.4,8.1,96,0.00,CLR,,0.00,WeatherDisplay:10.37,2013-02-28 19:37:00,
2013-02-28 13:42:00,33.9,32.9,30.02,NNE,12,5.3,8.1,96,0.00,CLR,,0.00,WeatherDisplay:10.37,2013-02-28 19:42:00,
2013-02-28 13:48:00,34.0,33.0,30.02,North,354,5.2,6.9,96,0.00,CLR,,0.00,WeatherDisplay:10.37,2013-02-28 19:48:00,
2013-02-28 13:53:00,33.9,32.9,30.02,NW,323,6.4,11.5,96,0.00,CLR,,0.00,WeatherDisplay:10.37,2013-02-28 19:53:00,
2013-02-28 13:58:00,33.9,32.9,30.02,NNE,20,9.5,11.5,96,0.00,CLR,,0.00,WeatherDisplay:10.37,2013-02-28 19:58:00,
2013-02-28 14:03:00,33.9,32.9,30.02,NNE,23,8.0,10.4,96,0.00,CLR,,0.00,WeatherDisplay:10.37,2013-02-28 20:03:00,
2013-02-28 14:08:00,33.9,32.9,30.03,North,11,5.5,8.1,96,0.00,CLR,,0.00,WeatherDisplay:10.37,2013-02-28 20:08:00,
2013-02-28 14:13:00,33.9,32.9,30.03,NNW,334,4.7,8.1,96,0.00,CLR,,0.00,WeatherDisplay:10.37,2013-02-28 20:13:00,
2013-02-28 14:18:00,33.9,32.9,30.03,NNW,327,7.5,10.4,96,0.00,CLR,,0.00,WeatherDisplay:10.37,2013-02-28 20:18:00,
2013-02-28 14:23:00,33.9,32.9,30.03,NNW,340,8.9,10.4,96,0.00,CLR,,0.00,WeatherDisplay:10.37,2013-02-28 20:23:00,
2013-02-28 14:28:00,33.9,32.9,30.03,North,9,7.7,11.5,96,0.00,CLR,,0.00,WeatherDisplay:10.37,2013-02-28 20:28:00,
2013-02-28 14:33:00,34.0,33.0,30.03,NNW,345,5.6,8.1,96,0.00,CLR,,0.00,WeatherDisplay:10.37,2013-02-28 20:33:00,
2013-02-28 14:38:00,34.1,33.1,30.04,NNW,341,4.1,5.8,96,0.00,CLR,,0.00,WeatherDisplay:10.37,2013-02-28 20:38:00,
2013-02-28 14:43:00,34.2,32.9,30.04,NW,325,4.8,5.8,95,0.00,CLR,,0.00,WeatherDisplay:10.37,2013-02-28 20:43:00,
2013-02-28 14:48:00,34.2,32.9,30.04,NNW,343,4.1,5.8,95,0.00,CLR,,0.00,WeatherDisplay:10.37,2013-02-28 20:48:00,
2013-02-28 14:53:00,34.2,32.7,30.04,NNW,347,5.3,8.1,94,0.00,CLR,,0.00,WeatherDisplay:10.37,2013-02-28 20:53:00,
2013-02-28 14:58:00,34.3,32.8,30.04,NNE,27,4.1,5.8,94,0.00,CLR,,0.00,WeatherDisplay:10.37,2013-02-28 20:58:00,
2013-02-28 15:03:00,34.3,32.5,30.04,NNW,335,6.2,8.1,93,0.00,CLR,,0.00,WeatherDisplay:10.37,2013-02-28 21:03:00,
2013-02-28 15:08:00,34.3,32.2,30.04,North,1,5.9,9.2,92,0.00,CLR,,0.00,WeatherDisplay:10.37,2013-02-28 21:08:00,
2013-02-28 15:13:00,34.3,32.2,30.04,North,360,4.2,5.8,92,0.00,CLR,,0.00,WeatherDisplay:10.37,2013-02-28 21:13:00,
2013-02-28 15:18:00,34.4,32.0,30.04,NNW,338,5.5,7.0,91,0.00,CLR,,0.00,WeatherDisplay:10.37,2013-02-28 21:18:00,
2013-02-28 15:23:00,34.5,32.1,30.04,North,8,7.3,9.2,91,0.00,CLR,,0.00,WeatherDisplay:10.37,2013-02-28 21:23:00,
2013-02-28 15:28:00,34.5,31.9,30.04,NE,36,6.0,9.2,90,0.00,CLR,,0.00,WeatherDisplay:10.37,2013-02-28 21:28:00,
2013-02-28 15:33:00,34.5,31.9,30.05,NNW,347,7.7,11.5,90,0.00,CLR,,0.00,WeatherDisplay:10.37,2013-02-28 21:33:00,
2013-02-28 15:38:00,34.4,31.8,30.05,NNW,340,7.7,10.4,90,0.00,CLR,,0.00,WeatherDisplay:10.37,2013-02-28 21:38:00,
2013-02-28 15:43:00,34.2,31.8,30.05,NNE,23,8.4,10.4,91,0.00,CLR,,0.00,WeatherDisplay:10.37,2013-02-28 21:43:00,
2013-02-28 15:48:00,34.2,31.8,30.05,NE,39,6.3,9.2,91,0.00,CLR,,0.00,WeatherDisplay:10.37,2013-02-28 21:48:00,
2013-02-28 15:53:00,34.2,31.6,30.05,North,351,5.4,8.1,90,0.00,CLR,,0.00,WeatherDisplay:10.37,2013-02-28 21:53:00,
2013-02-28 15:58:00,34.2,31.8,30.05,North,352,3.8,5.0,91,0.00,CLR,,0.00,WeatherDisplay:10.37,2013-02-28 21:58:00,
2013-02-28 16:03:00,34.2,31.8,30.05,NNE,30,5.1,6.9,91,0.00,CLR,,0.00,WeatherDisplay:10.37,2013-02-28 22:03:00,
2013-02-28 16:08:00,34.2,31.6,30.05,NE,36,4.8,8.0,90,0.00,CLR,,0.00,WeatherDisplay:10.37,2013-02-28 22:08:00,
2013-02-28 16:13:00,34.2,31.6,30.06,NNE,15,5.3,6.9,90,0.00,CLR,,0.00,WeatherDisplay:10.37,2013-02-28 22:13:00,
2013-02-28 16:18:00,34.2,31.6,30.06,NNW,334,4.0,5.8,90,0.00,CLR,,0.00,WeatherDisplay:10.37,2013-02-28 22:18:00,
2013-02-28 16:23:00,34.2,31.3,30.06,NNE,33,5.4,5.8,89,0.00,CLR,,0.00,WeatherDisplay:10.37,2013-02-28 22:23:00,
2013-02-28 16:29:00,34.2,31.3,30.06,NNE,33,4.3,5.8,89,0.00,CLR,,0.00,WeatherDisplay:10.37,2013-02-28 22:29:00,
2013-02-28 16:34:00,34.3,31.1,30.06,NNW,343,4.3,8.1,88,0.00,CLR,,0.00,WeatherDisplay:10.37,2013-02-28 22:34:00,
2013-02-28 16:39:00,34.3,31.4,30.06,WNW,297,1.7,3.5,89,0.00,CLR,,0.00,WeatherDisplay:10.37,2013-02-28 22:39:00,
2013-02-28 16:44:00,34.2,31.0,30.06,NW,322,3.8,4.6,88,0.00,CLR,,0.00,WeatherDisplay:10.37,2013-02-28 22:44:00,
2013-02-28 16:49:00,34.2,31.0,30.06,NE,49,4.8,6.9,88,0.00,CLR,,0.00,WeatherDisplay:10.37,2013-02-28 22:49:00,
2013-02-28 16:54:00,34.3,31.1,30.06,NW,321,2.5,3.5,88,0.00,CLR,,0.00,WeatherDisplay:10.37,2013-02-28 22:54:00,
2013-02-28 16:59:00,34.2,31.0,30.06,NW,316,3.6,3.6,88,0.00,CLR,,0.00,WeatherDisplay:10.37,2013-02-28 22:59:00,
2013-02-28 17:04:00,34.1,30.6,30.06,North,357,3.5,4.6,87,0.00,CLR,,0.00,WeatherDisplay:10.37,2013-02-28 23:04:00,
2013-02-28 17:09:00,34.1,30.6,30.07,NE,39,5.7,9.2,87,0.00,CLR,,0.00,WeatherDisplay:10.37,2013-02-28 23:09:00,
2013-02-28 17:14:00,34.0,30.5,30.07,NNE,20,4.2,6.0,87,0.00,CLR,,0.00,WeatherDisplay:10.37,2013-02-28 23:14:00,
2013-02-28 17:19:00,34.0,30.5,30.07,North,11,4.6,8.1,87,0.00,CLR,,0.00,WeatherDisplay:10.37,2013-02-28 23:19:00,
2013-02-28 17:24:00,34.0,30.5,30.07,NNE,23,4.8,5.8,87,0.00,CLR,,0.00,WeatherDisplay:10.37,2013-02-28 23:24:00,
2013-02-28 17:29:00,33.9,30.4,30.07,NNE,16,5.4,6.9,87,0.00,CLR,,0.00,WeatherDisplay:10.37,2013-02-28 23:29:00,
2013-02-28 17:34:00,33.8,30.3,30.08,NNE,23,3.2,5.8,87,0.00,CLR,,0.00,WeatherDisplay:10.37,2013-02-28 23:34:00,
2013-02-28 17:39:00,33.6,30.4,30.08,WNW,302,3.7,4.6,88,0.00,CLR,,0.00,WeatherDisplay:10.37,2013-02-28 23:39:00,
2013-02-28 17:44:00,33.4,30.2,30.08,North,351,3.3,4.6,88,0.00,CLR,,0.00,WeatherDisplay:10.37,2013-02-28 23:44:00,
2013-02-28 17:49:00,33.3,30.4,30.08,North,350,1.7,2.3,89,0.00,CLR,,0.00,WeatherDisplay:10.37,2013-02-28 23:49:00,
2013-02-28 17:55:00,33.1,30.2,30.08,NNW,330,3.2,3.5,89,0.00,CLR,,0.00,WeatherDisplay:10.37,2013-02-28 23:55:00,
2013-02-28 18:00:00,33.1,30.2,30.08,NNE,23,3.2,5.0,89,0.00,CLR,,0.00,WeatherDisplay:10.37,2013-03-01 00:00:00,
2013-02-28 18:05:00,33.1,30.5,30.08,North,356,3.4,5.8,90,0.00,,,0.00,WeatherDisplay:10.37,2013-03-01 00:05:00,
2013-02-28 18:10:00,32.9,30.3,30.08,NNE,19,6.6,6.9,90,0.00,,,0.00,WeatherDisplay:10.37,2013-03-01 00:10:00,
2013-02-28 18:15:00,32.8,30.2,30.08,NNE,12,2.6,4.6,90,0.00,,,0.00,WeatherDisplay:10.37,2013-03-01 00:15:00,
2013-02-28 18:20:00,32.8,30.2,30.08,North,349,4.1,5.8,90,0.00,,,0.00,WeatherDisplay:10.37,2013-03-01 00:20:00,
2013-02-28 18:25:00,32.7,30.4,30.08,North,1,2.6,4.0,91,0.00,,,0.00,WeatherDisplay:10.37,2013-03-01 00:25:00,
2013-02-28 18:30:00,32.7,30.4,30.08,NNE,22,3.8,4.6,91,0.00,,,0.00,WeatherDisplay:10.37,2013-03-01 00:30:00,
2013-02-28 18:35:00,32.7,30.4,30.08,NNE,16,4.5,5.0,91,0.00,,,0.00,WeatherDisplay:10.37,2013-03-01 00:35:00,
2013-02-28 18:40:00,32.7,30.4,30.08,NNE,13,3.0,6.0,91,0.00,,,0.00,WeatherDisplay:10.37,2013-03-01 00:40:00,
2013-02-28 18:45:00,32.7,30.1,30.08,NNE,19,4.8,8.1,90,0.00,,,0.00,WeatherDisplay:10.37,2013-03-01 00:45:00,
2013-02-28 18:50:00,32.7,30.1,30.08,North,1,3.4,4.6,90,0.00,,,0.00,WeatherDisplay:10.37,2013-03-01 00:50:00,
2013-02-28 18:55:00,32.7,30.1,30.08,NNE,13,1.7,3.5,90,0.00,,,0.00,WeatherDisplay:10.37,2013-03-01 00:55:00,
2013-02-28 19:00:00,32.6,30.3,30.08,NNE,16,1.7,3.5,91,0.00,,,0.00,WeatherDisplay:10.37,2013-03-01 01:00:00,
2013-02-28 19:05:00,32.6,30.3,30.08,North,354,1.4,2.3,91,0.00,,,0.00,WeatherDisplay:10.37,2013-03-01 01:05:00,
2013-02-28 19:10:00,32.6,30.3,30.08,NW,314,1.0,3.5,91,0.00,,,0.00,WeatherDisplay:10.37,2013-03-01 01:10:00,
2013-02-28 19:15:00,32.5,30.2,30.08,North,349,1.7,3.5,91,0.00,,,0.00,WeatherDisplay:10.37,2013-03-01 01:15:00,
2013-02-28 19:20:00,32.5,29.9,30.08,North,1,2.5,3.5,90,0.00,,,0.00,WeatherDisplay:10.37,2013-03-01 01:20:00,
2013-02-28 19:25:00,32.6,30.0,30.08,NNW,339,2.6,5.0,90,0.00,,,0.00,WeatherDisplay:10.37,2013-03-01 01:25:00,
2013-02-28 19:30:00,32.7,29.8,30.08,NW,316,2.3,3.5,89,0.00,,,0.00,WeatherDisplay:10.37,2013-03-01 01:30:00,
2013-02-28 19:35:00,32.7,29.8,30.09,NNE,15,3.1,3.5,89,0.00,,,0.00,WeatherDisplay:10.37,2013-03-01 01:35:00,
2013-02-28 19:40:00,32.7,29.8,30.08,NNE,19,2.8,3.5,89,0.00,,,0.00,WeatherDisplay:10.37,2013-03-01 01:40:00,
2013-02-28 19:46:00,32.7,29.8,30.09,NNW,343,2.8,3.5,89,0.00,,,0.00,WeatherDisplay:10.37,2013-03-01 01:46:00,
2013-02-28 19:51:00,32.7,29.8,30.08,NNE,27,2.1,3.5,89,0.00,,,0.00,WeatherDisplay:10.37,2013-03-01 01:51:00,
2013-02-28 19:56:00,32.7,29.8,30.09,NNE,29,1.7,3.5,89,0.00,,,0.00,WeatherDisplay:10.37,2013-03-01 01:56:00,
2013-02-28 20:01:00,32.7,29.8,30.09,NNE,19,1.8,3.5,89,0.00,,,0.00,WeatherDisplay:10.37,2013-03-01 02:01:00,
2013-02-28 20:06:00,32.7,29.8,30.09,NE,39,2.5,3.5,89,0.00,,,0.00,WeatherDisplay:10.37,2013-03-01 02:06:00,
2013-02-28 20:11:00,32.7,29.8,30.08,NNE,23,2.2,3.5,89,0.00,,,0.00,WeatherDisplay:10.37,2013-03-01 02:11:00,
2013-02-28 20:16:00,32.6,29.7,30.09,NNE,20,2.3,3.5,89,0.00,,,0.00,WeatherDisplay:10.37,2013-03-01 02:16:00,
2013-02-28 20:21:00,32.5,29.6,30.09,North,358,1.3,3.5,89,0.00,,,0.00,WeatherDisplay:10.37,2013-03-01 02:21:00,
2013-02-28 20:26:00,32.5,29.6,30.09,North,6,1.3,2.3,89,0.00,,,0.00,WeatherDisplay:10.37,2013-03-01 02:26:00,
2013-02-28 20:31:00,32.5,29.6,30.09,NNW,347,1.7,2.3,89,0.00,,,0.00,WeatherDisplay:10.37,2013-03-01 02:31:00,
2013-02-28 20:36:00,32.4,29.8,30.09,North,350,1.9,3.5,90,0.00,,,0.00,WeatherDisplay:10.37,2013-03-01 02:36:00,
2013-02-28 20:41:00,32.4,29.8,30.09,NNW,338,2.1,3.5,90,0.00,,,0.00,WeatherDisplay:10.37,2013-03-01 02:41:00,
2013-02-28 20:46:00,32.3,29.7,30.09,North,9,1.9,3.5,90,0.00,,,0.00,WeatherDisplay:10.37,2013-03-01 02:46:00,
2013-02-28 20:51:00,32.3,29.7,30.09,North,349,1.5,3.0,90,0.00,,,0.00,WeatherDisplay:10.37,2013-03-01 02:51:00,
2013-02-28 20:56:00,32.3,29.7,30.09,NNE,25,2.1,3.5,90,0.00,,,0.00,WeatherDisplay:10.37,2013-03-01 02:56:00,
2013-02-28 21:01:00,32.2,29.6,30.09,NNE,27,1.6,3.5,90,0.00,,,0.00,WeatherDisplay:10.37,2013-03-01 03:01:00,
2013-02-28 21:06:00,32.2,29.6,30.09,NE,35,1.7,4.0,90,0.00,,,0.00,WeatherDisplay:10.37,2013-03-01 03:06:00,
2013-02-28 21:11:00,32.1,29.5,30.09,NNE,16,1.2,3.5,90,0.00,,,0.00,WeatherDisplay:10.37,2013-03-01 03:11:00,
2013-02-28 21:16:00,32.0,29.4,30.10,NNE,13,1.1,2.3,90,0.00,,,0.00,WeatherDisplay:10.37,2013-03-01 03:16:00,
2013-02-28 21:21:00,32.0,29.7,30.10,NNE,15,0.5,1.1,91,0.00,,,0.00,WeatherDisplay:10.37,2013-03-01 03:21:00,
2013-02-28 21:26:00,31.9,29.6,30.10,North,356,1.2,2.3,91,0.00,,,0.00,WeatherDisplay:10.37,2013-03-01 03:26:00,
2013-02-28 21:31:00,31.9,29.6,30.10,North,5,0.9,2.3,91,0.00,,,0.00,WeatherDisplay:10.37,2013-03-01 03:31:00,
2013-02-28 21:36:00,31.8,29.5,30.10,North,356,0.7,1.1,91,0.00,,,0.00,WeatherDisplay:10.37,2013-03-01 03:36:00,
2013-02-28 21:41:00,31.8,29.5,30.10,NNE,22,1.6,2.3,91,0.00,,,0.00,WeatherDisplay:10.37,2013-03-01 03:41:00,
2013-02-28 21:46:00,31.8,29.5,30.10,North,11,1.5,3.5,91,0.00,,,0.00,WeatherDisplay:10.37,2013-03-01 03:46:00,
2013-02-28 21:51:00,31.7,29.4,30.10,NNW,345,2.1,3.5,91,0.00,,,0.00,WeatherDisplay:10.37,2013-03-01 03:51:00,
2013-02-28 21:56:00,31.7,29.6,30.10,NNW,338,3.0,4.0,92,0.00,,,0.00,WeatherDisplay:10.37,2013-03-01 03:56:00,
2013-02-28 22:01:00,31.7,29.4,30.10,NNW,345,4.0,4.6,91,0.00,,,0.00,WeatherDisplay:10.37,2013-03-01 04:01:00,
2013-02-28 22:06:00,31.6,29.3,30.10,North,1,2.4,3.5,91,0.00,,,0.00,WeatherDisplay:10.37,2013-03-01 04:06:00,
2013-02-28 22:12:00,31.6,29.3,30.10,NNE,23,2.0,3.0,91,0.00,,,0.00,WeatherDisplay:10.37,2013-03-01 04:12:00,
2013-02-28 22:17:00,31.5,29.2,30.10,NNE,33,2.1,4.0,91,0.00,,,0.00,WeatherDisplay:10.37,2013-03-01 04:17:00,
2013-02-28 22:22:00,31.5,29.2,30.10,NNE,12,2.7,3.5,91,0.00,,,0.00,WeatherDisplay:10.37,2013-03-01 04:22:00,
2013-02-28 22:27:00,31.5,29.2,30.10,North,354,2.5,2.5,91,0.00,,,0.00,WeatherDisplay:10.37,2013-03-01 04:27:00,
2013-02-28 22:32:00,31.5,29.2,30.11,NNW,345,1.9,3.5,91,0.00,,,0.00,WeatherDisplay:10.37,2013-03-01 04:32:00,
2013-02-28 22:37:00,31.4,29.1,30.10,NE,52,1.7,3.5,91,0.00,,,0.00,WeatherDisplay:10.37,2013-03-01 04:37:00,
2013-02-28 22:42:00,31.4,29.1,30.10,NNE,33,1.7,4.6,91,0.00,,,0.00,WeatherDisplay:10.37,2013-03-01 04:42:00,
2013-02-28 22:47:00,31.4,29.1,30.10,NNW,330,1.9,3.5,91,0.00,,,0.00,WeatherDisplay:10.37,2013-03-01 04:47:00,
2013-02-28 22:52:00,31.3,29.0,30.11,North,349,2.5,3.5,91,0.00,,,0.00,WeatherDisplay:10.37,2013-03-01 04:52:00,
2013-02-28 22:57:00,31.3,29.0,30.10,North,5,2.7,4.0,91,0.00,,,0.00,WeatherDisplay:10.37,2013-03-01 04:57:00,
2013-02-28 23:00:00,31.3,29.0,30.11,WNW,293,2.4,4.6,91,0.00,,,0.00,WeatherDisplay:10.37,2013-03-01 05:00:00,
2013-02-28 23:04:00,31.2,28.9,30.11,North,4,4.2,5.8,91,0.00,,,0.00,WeatherDisplay:10.37,2013-03-01 05:04:00,
2013-02-28 23:06:00,31.2,28.9,30.11,NE,36,2.0,3.5,91,0.00,,,0.00,WeatherDisplay:10.37,2013-03-01 05:06:00,
2013-02-28 23:11:00,31.2,28.9,30.10,NNE,18,4.3,6.9,91,0.00,,,0.00,WeatherDisplay:10.37,2013-03-01 05:11:00,
2013-02-28 23:16:00,31.2,28.9,30.11,NE,56,4.8,6.9,91,0.00,,,0.00,WeatherDisplay:10.37,2013-03-01 05:16:00,
2013-02-28 23:21:00,31.1,28.8,30.11,NE,43,2.9,5.8,91,0.00,,,0.00,WeatherDisplay:10.37,2013-03-01 05:21:00,
2013-02-28 23:26:00,31.1,28.8,30.10,ENE,59,5.8,8.1,91,0.00,,,0.00,WeatherDisplay:10.37,2013-03-01 05:26:00,
2013-02-28 23:31:00,31.1,28.8,30.10,NE,43,5.7,7.0,91,0.00,,,0.00,WeatherDisplay:10.37,2013-03-01 05:31:00,
2013-02-28 23:36:00,31.0,28.7,30.10,NE,56,5.6,6.9,91,0.00,,,0.00,WeatherDisplay:10.37,2013-03-01 05:36:00,
2013-02-28 23:41:00,30.9,28.6,30.10,NE,43,6.1,8.1,91,0.00,,,0.00,WeatherDisplay:10.37,2013-03-01 05:41:00,
2013-02-28 23:46:00,30.8,28.2,30.10,ENE,65,8.1,11.5,90,0.00,,,0.00,WeatherDisplay:10.37,2013-03-01 05:46:00,
2013-02-28 23:51:00,30.7,28.1,30.10,ENE,60,9.4,11.5,90,0.00,,,0.00,WeatherDisplay:10.37,2013-03-01 05:51:00,
2013-02-28 23:56:00,30.6,28.0,30.10,NE,53,6.6,8.1,90,0.00,,,0.00,WeatherDisplay:10.37,2013-03-01 05:56:00,